createdAt,value
2019-04-01T00:04:36.668Z,53.46
2019-04-01T00:09:38.299Z,53.41
2019-04-01T00:14:40.001Z,53.33
2019-04-01T00:19:41.725Z,53.25
2019-04-01T00:24:43.422Z,53.24
2019-04-01T00:29:45.091Z,53.17
2019-04-01T00:34:46.623Z,53.13
2019-04-01T00:39:48.307Z,53.09
2019-04-01T00:44:49.987Z,53.07
2019-04-01T00:49:51.689Z,53.03
2019-04-01T00:54:53.385Z,53.00
2019-04-01T00:59:55.082Z,52.92
2019-04-01T01:04:56.633Z,52.90
2019-04-01T01:09:58.288Z,52.94
2019-04-01T01:14:59.871Z,52.88
2019-04-01T01:20:01.678Z,52.80
2019-04-01T01:25:03.514Z,52.88
2019-04-01T01:30:05.435Z,52.82
2019-04-01T01:35:07.123Z,52.78
2019-04-01T01:40:09.268Z,52.77
2019-04-01T01:45:10.955Z,52.70
2019-04-01T01:50:12.654Z,52.82
2019-04-01T01:55:14.203Z,52.94
2019-04-01T02:00:16.079Z,52.83
2019-04-01T02:05:17.740Z,52.88
2019-04-01T02:10:19.405Z,52.90
2019-04-01T02:15:21.073Z,52.93
2019-04-01T02:20:22.747Z,52.97
2019-04-01T02:25:24.453Z,52.92
2019-04-01T02:30:26.025Z,52.89
2019-04-01T02:35:27.865Z,52.91
2019-04-01T02:40:29.519Z,52.90
2019-04-01T02:45:31.193Z,52.91
2019-04-01T02:50:32.912Z,52.83
2019-04-01T02:55:34.556Z,52.77
2019-04-01T03:00:36.203Z,52.84
2019-04-01T03:05:37.895Z,53.00
2019-04-01T03:10:39.589Z,52.95
2019-04-01T03:15:41.257Z,52.83
2019-04-01T03:20:42.925Z,52.85
2019-04-01T03:25:44.608Z,52.88
2019-04-01T03:30:46.292Z,52.89
2019-04-01T03:35:47.930Z,52.86
2019-04-01T03:40:49.662Z,52.86
2019-04-01T03:45:51.360Z,52.83
2019-04-01T03:50:53.080Z,52.88
2019-04-01T03:55:54.753Z,52.89
2019-04-01T04:00:56.424Z,52.97
2019-04-01T04:05:58.145Z,52.92
2019-04-01T04:10:59.843Z,53.03
2019-04-01T04:16:01.417Z,52.91
2019-04-01T04:21:03.190Z,53.08
2019-04-01T04:26:05.575Z,52.96
2019-04-01T04:31:07.284Z,53.00
2019-04-01T04:36:08.953Z,53.04
2019-04-01T04:41:10.652Z,53.07
2019-04-01T04:46:12.386Z,53.13
2019-04-01T04:51:14.127Z,53.10
2019-04-01T04:56:15.865Z,53.06
2019-04-01T05:01:17.538Z,53.03
2019-04-01T05:06:19.099Z,53.01
2019-04-01T05:11:20.816Z,52.90
2019-04-01T05:16:22.474Z,52.90
2019-04-01T05:21:24.143Z,52.87
2019-04-01T05:26:25.797Z,52.77
2019-04-01T05:31:27.754Z,52.73
2019-04-01T05:36:30.827Z,52.65
2019-04-01T05:41:32.760Z,52.59
2019-04-01T05:46:34.453Z,52.55
2019-04-01T05:51:36.139Z,52.45
2019-04-01T05:56:37.890Z,52.42
2019-04-01T06:01:44.667Z,52.47
2019-04-01T06:06:48.866Z,52.40
2019-04-01T06:11:49.831Z,52.32
2019-04-01T06:16:51.933Z,52.20
2019-04-01T06:21:53.603Z,52.19
2019-04-01T06:26:55.351Z,52.23
2019-04-01T06:31:57.530Z,52.18
2019-04-01T06:36:59.168Z,52.06
2019-04-01T06:42:00.800Z,51.95
2019-04-01T06:47:02.508Z,51.96
2019-04-01T06:52:04.162Z,51.88
2019-04-01T06:57:05.818Z,51.81
2019-04-01T07:02:07.487Z,51.79
2019-04-01T07:07:19.013Z,51.74
2019-04-01T07:12:13.045Z,51.75
2019-04-01T07:17:14.576Z,51.77
2019-04-01T07:22:16.126Z,51.63
2019-04-01T07:27:17.683Z,51.59
2019-04-01T07:32:19.254Z,51.44
2019-04-01T07:37:20.955Z,51.35
2019-04-01T07:42:22.672Z,51.33
2019-04-01T07:47:24.376Z,51.34
2019-04-01T07:52:25.985Z,51.21
2019-04-01T07:57:27.940Z,51.17
2019-04-01T08:02:29.516Z,51.13
2019-04-01T08:07:31.155Z,51.13
2019-04-01T08:12:32.798Z,51.13
2019-04-01T08:17:34.434Z,51.10
2019-04-01T08:22:36.083Z,51.04
2019-04-01T08:27:37.734Z,51.05
2019-04-01T08:32:39.395Z,51.02
2019-04-01T08:37:41.049Z,50.97
2019-04-01T08:42:42.582Z,51.06
2019-04-01T08:47:44.247Z,51.00
2019-04-01T08:52:45.911Z,50.86
2019-04-01T08:57:47.563Z,50.81
2019-04-01T09:02:49.233Z,50.75
2019-04-01T09:07:50.886Z,50.73
2019-04-01T09:12:53.151Z,50.66
2019-04-01T09:17:54.828Z,50.59
2019-04-01T09:22:59.077Z,50.50
2019-04-01T09:27:59.906Z,50.36
2019-04-01T09:33:01.544Z,50.20
2019-04-01T09:38:03.211Z,50.12
2019-04-01T09:43:04.740Z,50.09
2019-04-01T09:48:06.382Z,50.00
2019-04-01T09:53:08.052Z,49.92
2019-04-01T09:58:09.737Z,49.76
2019-04-01T10:03:11.395Z,49.54
2019-04-01T10:08:13.063Z,49.42
2019-04-01T10:13:14.641Z,49.32
2019-04-01T10:18:16.205Z,49.14
2019-04-01T10:23:17.852Z,48.98
2019-04-01T10:28:19.516Z,48.74
2019-04-01T10:33:21.251Z,48.49
2019-04-01T10:38:22.817Z,48.23
2019-04-01T10:43:24.508Z,48.04
2019-04-01T10:48:26.069Z,47.84
2019-04-01T10:53:27.797Z,47.65
2019-04-01T10:58:29.400Z,47.46
2019-04-01T11:03:31.109Z,47.26
2019-04-01T11:08:32.833Z,47.08
2019-04-01T11:13:34.346Z,46.83
2019-04-01T11:18:35.852Z,46.52
2019-04-01T11:23:37.398Z,46.21
2019-04-01T11:28:39.239Z,45.15
2019-04-01T11:33:40.927Z,28.16
2019-04-01T11:38:42.948Z,29.61
2019-04-01T11:43:44.609Z,35.43
2019-04-01T11:48:46.363Z,36.29
2019-04-01T11:53:48.051Z,35.86
2019-04-01T11:58:49.758Z,38.12
2019-04-01T12:03:51.507Z,38.12
2019-04-01T12:08:53.176Z,39.32
2019-04-01T12:13:54.845Z,39.58
2019-04-01T12:18:56.380Z,39.39
2019-04-01T12:23:58.696Z,39.20
2019-04-01T12:29:00.362Z,39.44
2019-04-01T12:34:01.956Z,39.70
2019-04-01T12:39:05.824Z,38.71
2019-04-01T12:44:07.386Z,37.57
2019-04-01T12:49:09.168Z,36.77
2019-04-01T12:54:10.832Z,36.59
2019-04-01T12:59:12.432Z,36.85
2019-04-01T13:04:14.163Z,36.91
2019-04-01T13:09:15.881Z,36.64
2019-04-01T13:14:17.729Z,35.84
2019-04-01T13:19:19.496Z,35.35
2019-04-01T13:24:21.053Z,35.04
2019-04-01T13:29:24.071Z,34.68
2019-04-01T13:34:25.701Z,34.66
2019-04-01T13:39:27.361Z,35.04
2019-04-01T13:44:36.913Z,35.23
2019-04-01T13:49:32.493Z,35.21
2019-04-01T13:54:34.175Z,35.64
2019-04-01T13:59:48.357Z,35.19
2019-04-01T14:04:39.319Z,33.71
2019-04-01T14:09:41.300Z,33.06
2019-04-01T14:14:42.877Z,32.44
2019-04-01T14:19:44.458Z,32.43
2019-04-01T14:24:46.025Z,32.72
2019-04-01T14:29:47.668Z,32.99
2019-04-01T14:34:50.494Z,33.11
2019-04-01T14:39:52.442Z,33.32
2019-04-01T14:44:58.292Z,33.98
2019-04-01T14:50:00.170Z,34.50
2019-04-01T14:55:02.611Z,34.56
2019-04-01T15:00:05.771Z,33.72
2019-04-01T15:05:07.438Z,33.33
2019-04-01T15:10:09.327Z,33.75
2019-04-01T15:15:11.097Z,33.01
2019-04-01T15:20:13.859Z,31.76
2019-04-01T15:25:15.411Z,30.95
2019-04-01T15:30:17.060Z,30.05
2019-04-01T15:35:18.896Z,26.88
2019-04-01T15:40:20.542Z,27.40
2019-04-01T15:45:22.132Z,26.08
2019-04-01T15:50:28.704Z,25.14
2019-04-01T15:55:27.439Z,23.81
2019-04-01T16:00:29.086Z,25.04
2019-04-01T16:05:30.760Z,25.79
2019-04-01T16:10:32.370Z,28.30
2019-04-01T16:15:33.956Z,30.24
2019-04-01T16:20:35.512Z,30.82
2019-04-01T16:25:37.698Z,29.43
2019-04-01T16:30:39.835Z,26.22
2019-04-01T16:35:41.434Z,28.86
2019-04-01T16:40:42.982Z,30.02
2019-04-01T16:45:44.668Z,30.64
2019-04-01T16:50:46.250Z,30.92
2019-04-01T16:55:47.913Z,30.91
2019-04-01T17:00:49.482Z,30.96
2019-04-01T17:05:51.085Z,32.47
2019-04-01T17:10:52.653Z,32.73
2019-04-01T17:15:54.392Z,32.75
2019-04-01T17:20:55.967Z,33.06
2019-04-01T17:25:57.574Z,33.73
2019-04-01T17:30:59.275Z,34.35
2019-04-01T17:36:00.838Z,34.88
2019-04-01T17:41:02.675Z,35.31
2019-04-01T17:46:04.414Z,35.58
2019-04-01T17:51:06.140Z,35.65
2019-04-01T17:56:07.896Z,35.65
2019-04-01T18:01:10.563Z,35.75
2019-04-01T18:06:12.810Z,35.73
2019-04-01T18:11:16.154Z,35.69
2019-04-01T18:16:17.992Z,35.78
2019-04-01T18:21:19.931Z,35.71
2019-04-01T18:26:21.532Z,35.69
2019-04-01T18:31:23.178Z,35.67
2019-04-01T18:36:24.792Z,35.65
2019-04-01T18:41:26.365Z,35.84
2019-04-01T18:46:28.089Z,35.77
2019-04-01T18:51:29.721Z,35.58
2019-04-01T18:56:31.317Z,35.53
2019-04-01T19:01:33.012Z,35.51
2019-04-01T19:06:35.191Z,35.45
2019-04-01T19:11:38.106Z,35.47
2019-04-01T19:16:39.948Z,35.59
2019-04-01T19:21:41.520Z,35.67
2019-04-01T19:26:43.145Z,35.60
2019-04-01T19:31:44.870Z,35.51
2019-04-01T19:36:46.428Z,35.53
2019-04-01T19:41:48.990Z,35.57
2019-04-01T19:46:50.694Z,35.54
2019-04-01T19:51:52.256Z,35.46
2019-04-01T19:56:53.844Z,35.52
2019-04-01T20:01:55.496Z,35.81
2019-04-01T20:06:57.039Z,35.78
2019-04-01T20:11:58.593Z,35.69
2019-04-01T20:17:02.034Z,35.62
2019-04-01T20:22:06.110Z,35.73
2019-04-01T20:27:07.683Z,35.68
2019-04-01T20:32:17.094Z,35.82
2019-04-01T20:37:13.621Z,35.91
2019-04-01T20:42:17.086Z,35.96
2019-04-01T20:47:18.750Z,36.03
2019-04-01T20:52:21.459Z,36.03
2019-04-01T20:57:23.254Z,35.97
2019-04-01T21:02:24.766Z,36.06
2019-04-01T21:07:26.318Z,36.36
2019-04-01T21:12:27.886Z,36.35
2019-04-01T21:17:29.539Z,36.45
2019-04-01T21:22:31.104Z,36.48
2019-04-01T21:27:32.643Z,36.47
2019-04-01T21:32:34.358Z,36.47
2019-04-01T21:37:36.092Z,36.54
2019-04-01T21:42:37.813Z,36.59
2019-04-01T21:47:40.196Z,36.80
2019-04-01T21:52:42.705Z,36.83
2019-04-01T21:57:44.403Z,36.84
2019-04-01T22:02:46.145Z,36.87
2019-04-01T22:07:47.859Z,37.17
2019-04-01T22:12:52.369Z,37.18
2019-04-01T22:17:53.146Z,37.13
2019-04-01T22:22:54.714Z,37.34
2019-04-01T22:27:56.388Z,37.50
2019-04-01T22:32:58.062Z,37.50
2019-04-01T22:37:59.763Z,37.61
2019-04-01T22:43:01.439Z,37.70
2019-04-01T22:48:03.276Z,37.85
2019-04-01T22:53:05.134Z,37.86
2019-04-01T22:58:06.826Z,37.78
2019-04-01T23:03:08.389Z,37.88
2019-04-01T23:08:10.056Z,37.93
2019-04-01T23:13:11.747Z,37.88
2019-04-01T23:18:13.423Z,37.84
2019-04-01T23:23:15.121Z,37.87
2019-04-01T23:28:16.799Z,38.25
2019-04-01T23:33:18.469Z,38.34
2019-04-01T23:38:20.123Z,38.48
2019-04-01T23:43:21.684Z,38.54
2019-04-01T23:48:23.274Z,38.61
2019-04-01T23:53:24.821Z,38.69
2019-04-01T23:58:26.502Z,38.85
